createdAt,value
2023-05-25T00:01:09.367Z,40.28
2023-05-25T00:03:35.905Z,41.99
2023-05-25T00:06:02.460Z,42.67
2023-05-25T00:08:28.928Z,41.57
2023-05-25T00:10:55.430Z,40.11
2023-05-25T00:13:21.950Z,39.87
2023-05-25T00:15:48.528Z,38.83
2023-05-25T00:18:15.089Z,38.65
2023-05-25T00:20:41.769Z,40.10
2023-05-25T00:23:08.387Z,40.57
2023-05-25T00:25:34.993Z,39.36
2023-05-25T00:28:01.627Z,39.47
2023-05-25T00:30:28.201Z,40.03
2023-05-25T00:32:54.787Z,39.39
2023-05-25T00:35:21.338Z,40.66
2023-05-25T00:37:47.896Z,43.27
2023-05-25T00:40:14.403Z,40.33
2023-05-25T00:42:40.927Z,40.10
2023-05-25T00:45:07.492Z,38.65
2023-05-25T00:47:34.000Z,40.31
2023-05-25T00:50:00.688Z,36.82
2023-05-25T00:52:27.216Z,38.59
2023-05-25T00:54:53.803Z,39.18
2023-05-25T00:57:20.392Z,39.21
2023-05-25T00:59:46.973Z,38.22
2023-05-25T01:02:13.598Z,38.71
2023-05-25T01:04:40.227Z,39.07
2023-05-25T01:07:07.261Z,38.14
2023-05-25T01:09:33.969Z,38.07
2023-05-25T01:12:03.319Z,36.93
2023-05-25T01:14:29.884Z,39.09
2023-05-25T01:16:56.413Z,36.51
2023-05-25T01:19:22.972Z,37.50
2023-05-25T01:21:49.497Z,37.22
2023-05-25T01:24:16.031Z,36.07
2023-05-25T01:26:42.564Z,38.32
2023-05-25T01:29:09.088Z,36.86
2023-05-25T01:31:35.570Z,37.39
2023-05-25T01:34:02.130Z,36.91
2023-05-25T01:36:28.650Z,35.96
2023-05-25T01:38:55.196Z,37.15
2023-05-25T01:41:21.755Z,38.77
2023-05-25T01:43:48.270Z,37.78
2023-05-25T01:46:14.775Z,37.86
2023-05-25T01:48:41.283Z,37.00
2023-05-25T01:51:07.797Z,35.80
2023-05-25T01:53:34.324Z,35.11
2023-05-25T01:56:00.861Z,35.09
2023-05-25T01:58:27.412Z,35.21
2023-05-25T02:00:53.921Z,35.68
2023-05-25T02:03:20.448Z,36.27
2023-05-25T02:05:46.967Z,36.76
2023-05-25T02:08:13.395Z,37.94
2023-05-25T02:10:39.833Z,35.66
2023-05-25T02:13:06.267Z,38.06
2023-05-25T02:15:32.725Z,35.24
2023-05-25T02:17:59.224Z,35.60
2023-05-25T02:20:25.720Z,35.14
2023-05-25T02:22:52.220Z,36.56
2023-05-25T02:25:18.728Z,35.28
2023-05-25T02:27:45.275Z,35.96
2023-05-25T02:30:11.747Z,35.11
2023-05-25T02:32:38.273Z,37.23
2023-05-25T02:35:04.744Z,34.21
2023-05-25T02:37:31.211Z,35.39
2023-05-25T02:39:57.705Z,35.53
2023-05-25T02:42:24.147Z,37.37
2023-05-25T02:44:50.649Z,35.75
2023-05-25T02:47:17.158Z,35.64
2023-05-25T02:49:43.677Z,34.15
2023-05-25T02:52:10.260Z,35.01
2023-05-25T02:54:36.767Z,32.68
2023-05-25T02:57:03.252Z,34.31
2023-05-25T02:59:29.845Z,33.90
2023-05-25T03:01:56.496Z,34.41
2023-05-25T03:04:23.110Z,34.15
2023-05-25T03:06:49.753Z,34.60
2023-05-25T03:09:16.271Z,35.22
2023-05-25T03:11:42.845Z,34.79
2023-05-25T03:14:09.433Z,33.40
2023-05-25T03:16:36.011Z,32.29
2023-05-25T03:19:02.544Z,34.37
2023-05-25T03:21:29.113Z,33.65
2023-05-25T03:23:55.630Z,32.66
2023-05-25T03:26:22.255Z,33.62
2023-05-25T03:28:48.802Z,34.16
2023-05-25T03:31:15.323Z,34.66
2023-05-25T03:33:41.878Z,34.14
2023-05-25T03:36:08.452Z,34.55
2023-05-25T03:38:34.992Z,34.16
2023-05-25T03:41:01.430Z,32.53
2023-05-25T03:43:27.995Z,33.73
2023-05-25T03:45:54.615Z,32.93
2023-05-25T03:48:21.212Z,33.39
2023-05-25T03:50:47.752Z,32.47
2023-05-25T03:53:14.327Z,32.56
2023-05-25T03:55:40.928Z,31.52
2023-05-25T03:58:07.479Z,34.39
2023-05-25T04:00:33.969Z,31.93
2023-05-25T04:03:00.532Z,33.20
2023-05-25T04:05:27.149Z,32.03
2023-05-25T04:07:53.616Z,31.55
2023-05-25T04:10:20.120Z,34.46
2023-05-25T04:12:46.689Z,32.61
2023-05-25T04:15:13.206Z,30.99
2023-05-25T04:17:39.821Z,31.49
2023-05-25T04:20:06.468Z,33.83
2023-05-25T04:22:32.952Z,33.17
2023-05-25T04:24:59.486Z,34.30
2023-05-25T04:27:26.010Z,31.97
2023-05-25T04:29:52.529Z,33.51
2023-05-25T04:32:19.099Z,35.18
2023-05-25T04:34:45.613Z,35.34
2023-05-25T04:37:12.203Z,35.74
2023-05-25T04:39:38.778Z,36.33
2023-05-25T04:42:05.273Z,37.82
2023-05-25T04:44:31.774Z,36.97
2023-05-25T04:46:58.525Z,37.85
2023-05-25T04:49:25.061Z,34.84
2023-05-25T04:51:51.572Z,37.07
2023-05-25T04:54:18.108Z,36.58
2023-05-25T04:56:44.610Z,37.54
2023-05-25T04:59:11.136Z,36.41
2023-05-25T05:01:37.701Z,35.15
2023-05-25T05:04:04.399Z,35.73
2023-05-25T05:06:30.998Z,37.98
2023-05-25T05:08:57.464Z,34.93
2023-05-25T05:11:24.023Z,35.48
2023-05-25T05:13:50.546Z,36.26
2023-05-25T05:16:17.054Z,36.80
2023-05-25T05:18:43.637Z,34.98
2023-05-25T05:21:10.181Z,36.57
2023-05-25T05:23:36.723Z,36.29
2023-05-25T05:26:03.204Z,35.24
2023-05-25T05:28:29.744Z,35.62
2023-05-25T05:30:56.219Z,35.94
2023-05-25T05:33:25.663Z,35.28
2023-05-25T05:35:52.180Z,35.10
2023-05-25T05:38:18.643Z,33.13
2023-05-25T05:40:45.116Z,35.37
2023-05-25T05:43:11.617Z,35.93
2023-05-25T05:45:38.089Z,34.73
2023-05-25T05:48:04.680Z,33.03
2023-05-25T05:50:31.177Z,33.33
2023-05-25T05:52:57.652Z,33.43
2023-05-25T05:55:24.127Z,34.04
2023-05-25T05:57:50.678Z,34.34
2023-05-25T06:00:17.256Z,32.60
2023-05-25T06:02:43.909Z,34.55
2023-05-25T06:05:10.491Z,33.69
2023-05-25T06:07:37.028Z,33.72
2023-05-25T06:10:03.485Z,33.22
2023-05-25T06:12:29.994Z,35.36
2023-05-25T06:14:56.553Z,36.18
2023-05-25T06:17:23.145Z,34.40
2023-05-25T06:19:49.732Z,36.61
2023-05-25T06:22:16.185Z,35.08
2023-05-25T06:24:42.686Z,31.82
2023-05-25T06:27:09.253Z,34.10
2023-05-25T06:29:35.816Z,35.63
2023-05-25T06:32:02.323Z,34.68
2023-05-25T06:34:28.855Z,35.77
2023-05-25T06:36:55.411Z,36.44
2023-05-25T06:39:21.877Z,37.37
2023-05-25T06:41:51.443Z,36.42
2023-05-25T06:44:18.149Z,34.90
2023-05-25T06:46:44.883Z,35.14
2023-05-25T06:49:11.516Z,36.09
2023-05-25T06:51:38.118Z,37.29
2023-05-25T06:54:04.690Z,34.77
2023-05-25T06:56:31.282Z,36.61
2023-05-25T06:58:57.924Z,36.00
2023-05-25T07:01:24.459Z,36.49
2023-05-25T07:03:51.057Z,33.28
2023-05-25T07:06:17.641Z,34.80
2023-05-25T07:08:44.199Z,35.05
2023-05-25T07:11:10.706Z,35.65
2023-05-25T07:13:37.224Z,33.75
2023-05-25T07:16:03.849Z,34.28
2023-05-25T07:18:30.391Z,32.84
2023-05-25T07:20:56.860Z,33.77
2023-05-25T07:23:24.015Z,32.36
2023-05-25T07:25:52.010Z,33.52
2023-05-25T07:28:19.714Z,33.76
2023-05-25T07:30:50.417Z,33.57
2023-05-25T07:33:17.360Z,33.06
2023-05-25T07:35:45.885Z,32.89
2023-05-25T07:38:13.846Z,31.96
2023-05-25T07:40:42.785Z,33.53
2023-05-25T07:43:10.664Z,34.32
2023-05-25T07:45:37.753Z,33.73
2023-05-25T07:48:09.597Z,32.88
2023-05-25T07:50:36.561Z,33.88
2023-05-25T07:53:04.498Z,31.02
2023-05-25T07:55:34.693Z,32.69
2023-05-25T07:58:04.147Z,33.49
2023-05-25T08:00:31.444Z,33.54
2023-05-25T08:02:58.980Z,31.24
2023-05-25T08:05:26.461Z,31.80
2023-05-25T08:07:53.472Z,33.87
2023-05-25T08:10:21.280Z,31.63
2023-05-25T08:15:35.735Z,32.12
2023-05-25T08:18:03.579Z,30.90
2023-05-25T08:20:31.841Z,32.16
2023-05-25T08:22:59.732Z,30.12
2023-05-25T08:25:27.079Z,30.26
2023-05-25T08:27:53.790Z,30.62
2023-05-25T08:30:20.352Z,29.84
2023-05-25T08:32:47.138Z,29.96
2023-05-25T08:35:13.656Z,31.07
2023-05-25T08:37:40.246Z,29.78
2023-05-25T08:40:06.742Z,29.91
2023-05-25T08:42:33.291Z,29.82
2023-05-25T08:44:59.857Z,29.06
2023-05-25T08:47:26.464Z,30.83
2023-05-25T08:49:53.160Z,27.28
2023-05-25T08:52:19.825Z,29.57
2023-05-25T08:54:46.299Z,28.99
2023-05-25T08:57:12.843Z,28.26
2023-05-25T08:59:39.561Z,29.50
2023-05-25T09:02:06.195Z,31.31
2023-05-25T09:04:32.815Z,29.10
2023-05-25T09:07:09.558Z,29.32
2023-05-25T09:09:37.529Z,29.33
2023-05-25T09:12:04.072Z,29.27
2023-05-25T09:14:30.675Z,28.86
2023-05-25T09:16:57.339Z,27.79
2023-05-25T09:19:23.983Z,28.42
2023-05-25T09:21:53.047Z,29.42
2023-05-25T09:24:26.365Z,29.26
2023-05-25T09:26:52.996Z,29.67
2023-05-25T09:29:19.552Z,29.11
2023-05-25T09:31:46.142Z,29.26
2023-05-25T09:34:12.675Z,29.32
2023-05-25T09:36:39.313Z,28.92
2023-05-25T09:39:06.027Z,27.88
2023-05-25T09:41:32.620Z,29.02
2023-05-25T09:44:10.356Z,27.95
2023-05-25T09:46:38.032Z,29.25
2023-05-25T09:49:04.583Z,29.93
2023-05-25T09:51:31.215Z,29.84
2023-05-25T09:53:57.806Z,30.02
2023-05-25T09:56:24.351Z,28.58
2023-05-25T09:58:50.956Z,27.75
2023-05-25T10:01:17.686Z,27.80
2023-05-25T10:03:55.411Z,29.20
2023-05-25T10:06:29.828Z,27.25
2023-05-25T10:08:56.406Z,27.86
2023-05-25T10:11:22.989Z,26.49
2023-05-25T10:13:49.537Z,27.53
2023-05-25T10:16:16.207Z,28.35
2023-05-25T10:18:42.766Z,27.51
2023-05-25T10:21:09.400Z,27.71
2023-05-25T10:23:35.988Z,27.71
2023-05-25T10:26:02.628Z,27.03
2023-05-25T10:28:29.220Z,27.67
2023-05-25T10:30:55.806Z,28.28
2023-05-25T10:33:22.369Z,28.47
2023-05-25T10:36:02.382Z,29.11
2023-05-25T10:38:35.472Z,28.24
2023-05-25T10:41:02.054Z,26.27
2023-05-25T10:43:28.706Z,26.66
2023-05-25T10:45:55.635Z,28.35
2023-05-25T10:48:23.620Z,27.99
2023-05-25T10:50:50.183Z,26.50
2023-05-25T10:53:16.670Z,26.90
2023-05-25T10:55:43.417Z,27.01
2023-05-25T10:58:10.256Z,26.99
2023-05-25T11:00:36.994Z,26.02
2023-05-25T11:03:03.622Z,26.88
2023-05-25T11:05:30.267Z,27.29
2023-05-25T11:07:56.852Z,26.50
2023-05-25T11:10:23.399Z,27.80
2023-05-25T11:12:49.992Z,26.03
2023-05-25T11:15:16.544Z,26.52
2023-05-25T11:17:43.161Z,26.79
2023-05-25T11:20:09.918Z,26.13
2023-05-25T11:22:36.484Z,25.64
2023-05-25T11:25:03.162Z,26.08
2023-05-25T11:27:29.776Z,25.90
2023-05-25T11:29:56.292Z,26.12
2023-05-25T11:32:22.899Z,26.10
2023-05-25T11:34:49.569Z,23.74
2023-05-25T11:37:16.145Z,24.63
2023-05-25T11:39:42.604Z,25.65
2023-05-25T11:42:09.077Z,25.39
2023-05-25T11:44:35.580Z,24.35
2023-05-25T11:47:02.206Z,25.35
2023-05-25T11:49:28.861Z,22.86
2023-05-25T11:51:55.510Z,25.53
2023-05-25T11:54:22.092Z,23.97
2023-05-25T11:56:48.629Z,24.90
2023-05-25T11:59:15.233Z,23.95
2023-05-25T12:01:41.872Z,22.43
2023-05-25T12:04:08.604Z,24.69
2023-05-25T12:06:35.322Z,23.41
2023-05-25T12:09:01.855Z,23.49
2023-05-25T12:11:28.588Z,23.91
2023-05-25T12:13:55.223Z,23.62
2023-05-25T12:16:21.861Z,24.14
2023-05-25T12:18:48.420Z,25.01
2023-05-25T12:21:14.960Z,25.34
2023-05-25T12:23:41.508Z,26.23
2023-05-25T12:26:08.023Z,23.87
2023-05-25T12:28:34.598Z,22.89
2023-05-25T12:31:01.225Z,23.59
2023-05-25T12:33:27.908Z,25.14
2023-05-25T12:35:54.552Z,22.56
2023-05-25T12:38:21.108Z,25.20
2023-05-25T12:40:47.836Z,23.41
2023-05-25T12:43:14.576Z,24.34
2023-05-25T12:45:41.110Z,23.38
2023-05-25T12:48:07.707Z,24.66
2023-05-25T12:50:34.295Z,24.25
2023-05-25T12:53:00.890Z,22.02
2023-05-25T12:55:27.552Z,23.42
2023-05-25T12:57:54.200Z,22.03
2023-05-25T13:00:20.792Z,21.37
2023-05-25T13:02:49.532Z,22.34
2023-05-25T13:05:17.356Z,22.91
2023-05-25T13:07:44.007Z,23.43
2023-05-25T13:10:10.576Z,23.66
2023-05-25T13:12:37.174Z,22.64
2023-05-25T13:15:03.808Z,22.27
2023-05-25T13:17:30.437Z,22.53
2023-05-25T13:19:57.026Z,23.73
2023-05-25T13:22:23.640Z,21.60
2023-05-25T13:24:50.126Z,23.02
2023-05-25T13:27:16.728Z,21.08
2023-05-25T13:29:43.293Z,21.72
2023-05-25T13:32:09.884Z,22.61
2023-05-25T13:34:36.520Z,21.54
2023-05-25T13:37:03.104Z,22.95
2023-05-25T13:39:29.752Z,21.66
2023-05-25T13:41:56.370Z,21.67
2023-05-25T13:44:22.977Z,22.24
2023-05-25T13:46:49.654Z,21.77
2023-05-25T13:49:16.341Z,21.51
2023-05-25T13:51:42.927Z,21.16
2023-05-25T13:54:09.481Z,22.16
2023-05-25T13:56:37.147Z,22.44
2023-05-25T13:59:03.740Z,21.08
2023-05-25T14:01:30.354Z,22.82
2023-05-25T14:03:56.968Z,21.37
2023-05-25T14:06:23.489Z,21.31
2023-05-25T14:08:50.052Z,22.74
2023-05-25T14:11:18.416Z,21.27
2023-05-25T14:13:48.310Z,22.12
2023-05-25T14:16:14.895Z,21.68
2023-05-25T14:18:41.497Z,22.85
2023-05-25T14:21:10.350Z,21.79
2023-05-25T14:23:36.917Z,23.26
2023-05-25T14:26:03.456Z,21.04
2023-05-25T14:28:29.930Z,22.13
2023-05-25T14:30:56.470Z,20.56
2023-05-25T14:33:22.998Z,21.87
2023-05-25T14:35:49.612Z,21.79
2023-05-25T14:38:16.175Z,23.06
2023-05-25T14:40:42.717Z,21.09
2023-05-25T14:43:09.253Z,21.78
2023-05-25T14:45:38.643Z,23.22
2023-05-25T14:48:16.145Z,22.13
2023-05-25T14:50:44.103Z,22.19
2023-05-25T14:53:10.692Z,20.20
2023-05-25T14:55:37.293Z,21.63
2023-05-25T14:58:06.955Z,21.64
2023-05-25T15:00:33.502Z,22.30
2023-05-25T15:03:00.109Z,22.39
2023-05-25T15:05:26.774Z,20.46
2023-05-25T15:07:53.318Z,22.56
2023-05-25T15:10:19.876Z,22.93
2023-05-25T15:12:46.395Z,22.81
2023-05-25T15:15:12.915Z,21.22
2023-05-25T15:17:42.597Z,19.87
2023-05-25T15:20:09.164Z,20.90
2023-05-25T15:22:35.679Z,22.15
2023-05-25T15:25:02.829Z,20.32
2023-05-25T15:27:30.544Z,20.42
2023-05-25T15:29:57.171Z,21.74
2023-05-25T15:32:23.730Z,21.47
2023-05-25T15:34:50.248Z,19.64
2023-05-25T15:37:16.720Z,21.00
2023-05-25T15:39:43.252Z,19.61
2023-05-25T15:42:09.806Z,21.02
2023-05-25T15:44:36.339Z,20.17
2023-05-25T15:47:02.882Z,20.04
2023-05-25T15:49:29.380Z,21.01
2023-05-25T15:51:55.900Z,20.85
2023-05-25T15:54:22.452Z,20.26
2023-05-25T15:56:48.984Z,19.67
2023-05-25T15:59:15.563Z,21.12
2023-05-25T16:01:42.137Z,21.76
2023-05-25T16:04:08.929Z,20.15
2023-05-25T16:06:35.453Z,19.75
2023-05-25T16:09:01.998Z,20.43
2023-05-25T16:11:28.632Z,20.77
2023-05-25T16:13:55.200Z,20.28
2023-05-25T16:16:21.774Z,20.53
2023-05-25T16:18:48.433Z,20.14
2023-05-25T16:21:15.047Z,20.99
2023-05-25T16:23:41.604Z,19.70
2023-05-25T16:26:08.159Z,20.70
2023-05-25T16:28:34.650Z,20.85
2023-05-25T16:31:01.090Z,21.97
2023-05-25T16:33:27.656Z,20.85
2023-05-25T16:35:54.261Z,24.12
2023-05-25T16:38:20.776Z,23.95
2023-05-25T16:40:47.343Z,27.07
2023-05-25T16:43:13.964Z,33.37
2023-05-25T16:45:40.610Z,37.85
2023-05-25T16:48:07.211Z,44.15
2023-05-25T16:50:33.741Z,47.27
2023-05-25T16:53:00.338Z,52.27
2023-05-25T16:55:26.887Z,50.04
2023-05-25T16:57:53.425Z,49.74
2023-05-25T17:00:20.038Z,51.81
2023-05-25T17:02:46.723Z,50.66
2023-05-25T17:05:13.421Z,47.13
2023-05-25T17:07:40.019Z,46.39
2023-05-25T17:10:06.686Z,43.79
2023-05-25T17:12:33.305Z,41.61
2023-05-25T17:14:59.830Z,45.11
2023-05-25T17:17:27.949Z,40.97
2023-05-25T17:19:54.766Z,42.26
2023-05-25T17:22:21.383Z,41.22
2023-05-25T17:24:47.855Z,44.07
2023-05-25T17:27:14.370Z,41.58
2023-05-25T17:29:40.854Z,42.99
2023-05-25T17:32:07.512Z,40.10
2023-05-25T17:34:34.036Z,42.28
2023-05-25T17:37:00.512Z,41.18
2023-05-25T17:39:26.993Z,40.73
2023-05-25T17:41:53.535Z,39.53
2023-05-25T17:44:20.058Z,39.74
2023-05-25T17:46:46.711Z,40.48
2023-05-25T17:49:14.483Z,40.19
2023-05-25T17:51:41.014Z,42.80
2023-05-25T17:54:07.684Z,41.01
2023-05-25T17:56:34.168Z,39.36
2023-05-25T17:59:00.644Z,38.97
2023-05-25T18:01:27.279Z,40.87
2023-05-25T18:03:54.076Z,41.59
2023-05-25T18:06:20.717Z,41.43
2023-05-25T18:08:47.232Z,78.07
2023-05-25T18:11:13.727Z,306.34
2023-05-25T18:13:40.218Z,616.94
2023-05-25T18:16:06.800Z,596.96
2023-05-25T18:18:33.365Z,729.02
2023-05-25T18:20:59.981Z,701.94
2023-05-25T18:23:26.917Z,611.48
2023-05-25T18:25:53.501Z,598.83
2023-05-25T18:28:19.983Z,593.01
2023-05-25T18:30:46.658Z,630.10
2023-05-25T18:33:13.283Z,638.11
2023-05-25T18:35:39.909Z,616.64
2023-05-25T18:38:06.669Z,641.09
2023-05-25T18:40:33.361Z,641.31
2023-05-25T18:42:59.900Z,637.87
2023-05-25T18:45:26.423Z,643.84
2023-05-25T18:47:52.992Z,628.00
2023-05-25T18:50:19.617Z,627.05
2023-05-25T18:52:46.157Z,619.59
2023-05-25T18:55:12.802Z,619.23
2023-05-25T18:57:39.398Z,608.40
2023-05-25T19:00:07.828Z,608.57
2023-05-25T19:02:34.498Z,611.36
2023-05-25T19:05:01.168Z,588.65
2023-05-25T19:07:27.716Z,545.97
2023-05-25T19:09:54.330Z,496.09
2023-05-25T19:12:20.804Z,470.91
2023-05-25T19:14:47.356Z,466.07
2023-05-25T19:17:13.945Z,443.27
2023-05-25T19:19:40.532Z,415.22
2023-05-25T19:22:07.169Z,418.00
2023-05-25T19:24:33.805Z,420.16
2023-05-25T19:27:00.431Z,426.22
2023-05-25T19:29:26.996Z,445.98
2023-05-25T19:31:53.616Z,408.06
2023-05-25T19:34:20.148Z,370.50
2023-05-25T19:36:48.246Z,344.71
2023-05-25T19:39:20.173Z,322.58
2023-05-25T19:41:46.846Z,325.36
2023-05-25T19:44:13.369Z,320.74
2023-05-25T19:46:40.018Z,301.75
2023-05-25T19:49:06.483Z,289.19
2023-05-25T19:51:33.097Z,266.35
2023-05-25T19:53:59.658Z,269.85
2023-05-25T19:56:26.292Z,264.40
2023-05-25T19:58:52.756Z,257.69
2023-05-25T20:01:19.430Z,255.08
2023-05-25T20:03:46.145Z,255.54
2023-05-25T20:06:12.802Z,246.11
2023-05-25T20:08:39.335Z,241.50
2023-05-25T20:11:05.884Z,221.49
2023-05-25T20:13:32.473Z,219.45
2023-05-25T20:16:01.893Z,215.41
2023-05-25T20:18:28.535Z,195.03
2023-05-25T20:20:55.148Z,191.27
2023-05-25T20:23:21.755Z,195.04
2023-05-25T20:25:48.421Z,182.12
2023-05-25T20:28:14.984Z,182.14
2023-05-25T20:30:41.771Z,178.08
2023-05-25T20:33:08.387Z,176.40
2023-05-25T20:35:35.056Z,169.02
2023-05-25T20:38:01.631Z,166.84
2023-05-25T20:40:28.251Z,161.41
2023-05-25T20:42:54.784Z,160.73
2023-05-25T20:45:21.453Z,158.04
2023-05-25T20:47:48.104Z,149.12
2023-05-25T20:50:14.731Z,148.77
2023-05-25T20:52:41.395Z,142.56
2023-05-25T20:55:08.058Z,142.14
2023-05-25T20:57:34.630Z,132.09
2023-05-25T21:00:01.130Z,132.66
2023-05-25T21:02:27.764Z,133.26
2023-05-25T21:04:54.377Z,125.83
2023-05-25T21:07:20.929Z,122.47
2023-05-25T21:09:47.469Z,120.26
2023-05-25T21:12:14.025Z,120.82
2023-05-25T21:14:40.731Z,117.68
2023-05-25T21:17:07.313Z,114.45
2023-05-25T21:19:33.951Z,112.94
2023-05-25T21:22:00.536Z,109.05
2023-05-25T21:24:27.209Z,106.41
2023-05-25T21:26:53.789Z,104.48
2023-05-25T21:29:20.349Z,103.16
2023-05-25T21:31:47.067Z,99.58
2023-05-25T21:34:13.808Z,98.93
2023-05-25T21:36:40.334Z,97.92
2023-05-25T21:39:06.935Z,91.34
2023-05-25T21:41:33.544Z,95.49
2023-05-25T21:44:00.024Z,89.66
2023-05-25T21:46:26.725Z,87.17
2023-05-25T21:48:53.388Z,86.34
2023-05-25T21:51:19.932Z,85.34
2023-05-25T21:53:46.593Z,85.59
2023-05-25T21:56:13.218Z,79.67
2023-05-25T21:58:39.825Z,82.12
2023-05-25T22:01:06.497Z,81.86
2023-05-25T22:03:33.112Z,83.53
2023-05-25T22:05:59.778Z,80.90
2023-05-25T22:08:26.409Z,77.39
2023-05-25T22:10:52.963Z,78.15
2023-05-25T22:13:19.479Z,78.96
2023-05-25T22:15:46.245Z,76.00
2023-05-25T22:18:13.104Z,74.93
2023-05-25T22:20:39.717Z,75.19
2023-05-25T22:23:06.326Z,70.16
2023-05-25T22:25:32.864Z,70.38
2023-05-25T22:27:59.387Z,70.09
2023-05-25T22:30:25.930Z,68.36
2023-05-25T22:32:52.543Z,67.85
2023-05-25T22:35:19.188Z,68.97
2023-05-25T22:37:45.715Z,67.60
2023-05-25T22:40:12.312Z,67.14
2023-05-25T22:42:38.787Z,63.31
2023-05-25T22:45:05.225Z,64.68
2023-05-25T22:47:31.776Z,65.42
2023-05-25T22:49:58.380Z,62.43
2023-05-25T22:52:24.948Z,64.58
2023-05-25T22:54:51.513Z,62.43
2023-05-25T22:57:18.136Z,63.24
2023-05-25T22:59:44.754Z,59.63
2023-05-25T23:02:11.401Z,59.33
2023-05-25T23:04:37.986Z,59.98
2023-05-25T23:07:04.511Z,60.47
2023-05-25T23:09:31.145Z,59.07
2023-05-25T23:11:57.747Z,59.18
2023-05-25T23:14:24.351Z,60.76
2023-05-25T23:16:50.897Z,57.26
2023-05-25T23:19:17.443Z,58.73
2023-05-25T23:21:43.962Z,56.99
2023-05-25T23:24:10.540Z,57.92
2023-05-25T23:26:37.073Z,59.18
2023-05-25T23:29:03.582Z,58.70
2023-05-25T23:31:30.277Z,55.55
2023-05-25T23:33:56.873Z,56.34
2023-05-25T23:36:23.489Z,58.18
2023-05-25T23:38:50.136Z,58.64
2023-05-25T23:41:16.655Z,57.29
2023-05-25T23:43:43.281Z,58.10
2023-05-25T23:46:09.859Z,56.09
2023-05-25T23:48:36.477Z,53.85
2023-05-25T23:51:02.995Z,55.13
2023-05-25T23:53:29.661Z,54.98
2023-05-25T23:55:56.235Z,56.18
2023-05-25T23:58:22.825Z,54.40
